createdAt,value
2023-01-30T00:00:09.803Z,62.40
2023-01-30T00:02:58.625Z,61.48
2023-01-30T00:05:27.868Z,62.14
2023-01-30T00:07:56.466Z,61.75
2023-01-30T00:10:26.154Z,61.90
2023-01-30T00:12:54.937Z,61.98
2023-01-30T00:15:23.659Z,61.93
2023-01-30T00:17:52.789Z,62.10
2023-01-30T00:20:21.637Z,62.02
2023-01-30T00:23:00.567Z,62.55
2023-01-30T00:25:31.971Z,62.65
2023-01-30T00:28:02.087Z,62.41
2023-01-30T00:30:31.386Z,62.58
2023-01-30T00:33:00.492Z,62.15
2023-01-30T00:35:29.307Z,62.51
2023-01-30T00:37:59.114Z,62.83
2023-01-30T00:40:29.659Z,62.51
2023-01-30T00:43:17.178Z,62.59
2023-01-30T00:46:06.006Z,62.57
2023-01-30T00:48:34.753Z,62.58
2023-01-30T00:51:04.251Z,62.39
2023-01-30T00:53:33.142Z,62.11
2023-01-30T00:56:02.485Z,61.88
2023-01-30T00:58:31.970Z,62.06
2023-01-30T01:01:00.919Z,62.52
2023-01-30T01:03:29.896Z,63.04
2023-01-30T01:05:59.044Z,63.56
2023-01-30T01:08:27.916Z,63.30
2023-01-30T01:10:57.036Z,63.82
2023-01-30T01:13:25.965Z,63.83
2023-01-30T01:15:54.738Z,64.26
2023-01-30T01:18:23.268Z,63.68
2023-01-30T01:20:52.017Z,63.69
2023-01-30T01:23:21.710Z,63.43
2023-01-30T01:25:50.631Z,63.70
2023-01-30T01:28:22.330Z,63.95
2023-01-30T01:30:51.621Z,63.19
2023-01-30T01:33:20.481Z,63.32
2023-01-30T01:35:49.720Z,63.18
2023-01-30T01:38:18.490Z,63.48
2023-01-30T01:41:02.545Z,63.86
2023-01-30T01:43:35.301Z,64.27
2023-01-30T01:46:13.969Z,64.09
2023-01-30T01:48:48.190Z,64.10
2023-01-30T01:51:23.314Z,64.12
2023-01-30T01:53:59.940Z,64.15
2023-01-30T01:56:30.821Z,64.32
2023-01-30T01:59:05.113Z,64.13
2023-01-30T02:01:35.107Z,64.26
2023-01-30T02:04:06.687Z,64.15
2023-01-30T02:06:37.854Z,64.33
2023-01-30T02:09:11.095Z,64.52
2023-01-30T02:11:56.702Z,64.16
2023-01-30T02:14:25.975Z,64.42
2023-01-30T02:16:55.085Z,64.53
2023-01-30T02:19:38.017Z,65.01
2023-01-30T02:22:23.560Z,64.77
2023-01-30T02:25:20.444Z,64.95
2023-01-30T02:27:58.099Z,64.99
2023-01-30T02:30:54.616Z,64.78
2023-01-30T02:33:55.421Z,65.45
2023-01-30T02:37:04.842Z,64.96
2023-01-30T02:39:46.504Z,64.95
2023-01-30T02:42:48.888Z,65.05
2023-01-30T02:45:36.416Z,65.18
2023-01-30T02:48:08.014Z,65.42
2023-01-30T02:51:03.817Z,65.10
2023-01-30T02:53:37.282Z,64.97
2023-01-30T02:56:07.579Z,64.97
2023-01-30T02:58:43.194Z,65.01
2023-01-30T03:01:43.024Z,65.50
2023-01-30T03:04:39.623Z,65.27
2023-01-30T03:07:19.325Z,65.40
2023-01-30T03:10:18.710Z,65.05
2023-01-30T03:13:10.939Z,65.41
2023-01-30T03:15:51.490Z,65.72
2023-01-30T03:18:22.118Z,65.69
2023-01-30T03:20:51.998Z,65.80
2023-01-30T03:23:21.195Z,65.23
2023-01-30T03:25:50.261Z,65.24
2023-01-30T03:28:22.106Z,65.32
2023-01-30T03:30:50.960Z,65.23
2023-01-30T03:33:20.339Z,64.75
2023-01-30T03:35:51.009Z,64.44
2023-01-30T03:38:20.465Z,64.44
2023-01-30T03:40:49.347Z,64.65
2023-01-30T03:43:18.509Z,64.85
2023-01-30T03:45:47.103Z,64.90
2023-01-30T03:48:16.934Z,64.91
2023-01-30T03:50:45.869Z,65.09
2023-01-30T03:53:14.762Z,65.27
2023-01-30T03:55:45.926Z,65.90
2023-01-30T03:58:14.774Z,65.73
2023-01-30T04:00:43.826Z,65.27
2023-01-30T04:03:12.855Z,65.16
2023-01-30T04:05:43.492Z,65.34
2023-01-30T04:08:12.361Z,65.64
2023-01-30T04:10:40.983Z,65.77
2023-01-30T04:13:09.739Z,65.24
2023-01-30T04:15:38.789Z,65.57
2023-01-30T04:18:07.513Z,65.71
2023-01-30T04:20:37.131Z,65.97
2023-01-30T04:23:05.784Z,65.89
2023-01-30T04:25:34.629Z,65.51
2023-01-30T04:28:03.343Z,65.56
2023-01-30T04:30:32.012Z,65.50
2023-01-30T04:33:00.728Z,66.05
2023-01-30T04:35:29.252Z,65.75
2023-01-30T04:37:58.210Z,65.65
2023-01-30T04:40:27.141Z,65.58
2023-01-30T04:42:55.667Z,65.79
2023-01-30T04:45:24.392Z,65.67
2023-01-30T04:47:52.906Z,65.59
2023-01-30T04:50:21.572Z,65.47
2023-01-30T04:52:50.156Z,65.56
2023-01-30T04:55:19.522Z,65.38
2023-01-30T04:57:48.411Z,65.52
2023-01-30T05:00:17.355Z,65.52
2023-01-30T05:02:46.054Z,65.34
2023-01-30T05:05:15.254Z,65.20
2023-01-30T05:07:44.185Z,65.50
2023-01-30T05:10:13.861Z,65.66
2023-01-30T05:12:42.635Z,66.09
2023-01-30T05:15:13.038Z,66.23
2023-01-30T05:17:44.435Z,65.90
2023-01-30T05:20:15.027Z,65.58
2023-01-30T05:22:44.256Z,65.50
2023-01-30T05:25:13.341Z,65.72
2023-01-30T05:27:42.278Z,65.17
2023-01-30T05:30:11.633Z,64.56
2023-01-30T05:32:40.502Z,64.52
2023-01-30T05:35:09.541Z,64.84
2023-01-30T05:37:38.801Z,65.40
2023-01-30T05:40:09.582Z,65.43
2023-01-30T05:42:38.547Z,65.26
2023-01-30T05:45:07.837Z,65.17
2023-01-30T05:47:36.560Z,65.19
2023-01-30T05:50:05.727Z,65.47
2023-01-30T05:52:34.566Z,65.73
2023-01-30T05:55:03.753Z,65.41
2023-01-30T05:57:32.440Z,65.42
2023-01-30T06:00:01.509Z,65.54
2023-01-30T06:02:31.903Z,65.47
2023-01-30T06:05:01.145Z,65.41
2023-01-30T06:07:30.095Z,65.36
2023-01-30T06:09:59.310Z,65.55
2023-01-30T06:12:28.499Z,65.47
2023-01-30T06:14:57.636Z,65.88
2023-01-30T06:17:29.078Z,65.84
2023-01-30T06:19:59.016Z,65.92
2023-01-30T06:22:28.161Z,65.73
2023-01-30T06:24:57.899Z,65.51
2023-01-30T06:27:27.002Z,65.85
2023-01-30T06:29:56.013Z,65.66
2023-01-30T06:32:25.339Z,65.33
2023-01-30T06:34:54.605Z,64.98
2023-01-30T06:37:23.668Z,65.09
2023-01-30T06:39:52.702Z,65.27
2023-01-30T06:42:21.897Z,65.34
2023-01-30T06:44:50.799Z,65.31
2023-01-30T06:47:19.764Z,64.99
2023-01-30T06:49:49.459Z,65.34
2023-01-30T06:52:18.328Z,65.00
2023-01-30T06:54:46.831Z,65.23
2023-01-30T06:57:15.802Z,65.09
2023-01-30T06:59:44.475Z,65.00
2023-01-30T07:02:13.854Z,64.80
2023-01-30T07:04:42.711Z,64.62
2023-01-30T07:07:11.900Z,65.07
2023-01-30T07:09:40.682Z,65.20
2023-01-30T07:12:09.403Z,62.66
2023-01-30T07:14:38.358Z,60.37
2023-01-30T07:17:07.921Z,57.10
2023-01-30T07:19:36.907Z,54.12
2023-01-30T07:22:05.725Z,51.26
2023-01-30T07:24:34.651Z,49.11
2023-01-30T07:27:03.667Z,46.25
2023-01-30T07:29:32.383Z,44.70
2023-01-30T07:32:01.275Z,43.03
2023-01-30T07:34:30.354Z,41.50
2023-01-30T07:36:59.391Z,39.96
2023-01-30T07:39:28.334Z,38.73
2023-01-30T07:41:57.056Z,37.29
2023-01-30T07:44:26.472Z,36.30
2023-01-30T07:46:55.756Z,35.27
2023-01-30T07:49:24.808Z,34.24
2023-01-30T07:51:54.265Z,33.14
2023-01-30T07:54:23.645Z,32.37
2023-01-30T07:56:53.143Z,31.73
2023-01-30T07:59:21.885Z,31.28
2023-01-30T08:01:50.917Z,30.53
2023-01-30T08:04:19.954Z,30.00
2023-01-30T08:06:49.277Z,29.53
2023-01-30T08:09:18.616Z,29.13
2023-01-30T08:11:48.039Z,28.77
2023-01-30T08:14:17.041Z,28.33
2023-01-30T08:16:46.546Z,27.77
2023-01-30T08:19:15.484Z,27.34
2023-01-30T08:21:44.516Z,26.52
2023-01-30T08:24:14.043Z,26.02
2023-01-30T08:26:43.478Z,25.49
2023-01-30T08:29:12.767Z,24.82
2023-01-30T08:31:43.102Z,24.48
2023-01-30T08:34:12.076Z,24.51
2023-01-30T08:36:40.999Z,23.89
2023-01-30T08:39:11.785Z,23.39
2023-01-30T08:41:43.696Z,23.32
2023-01-30T08:44:13.298Z,23.00
2023-01-30T08:46:42.657Z,22.66
2023-01-30T08:49:11.852Z,22.33
2023-01-30T08:51:41.082Z,22.01
2023-01-30T08:54:10.516Z,22.08
2023-01-30T08:56:39.765Z,21.68
2023-01-30T08:59:10.244Z,21.46
2023-01-30T09:01:39.376Z,21.29
2023-01-30T09:04:08.261Z,21.36
2023-01-30T09:06:37.360Z,21.03
2023-01-30T09:09:06.550Z,20.77
2023-01-30T09:11:36.079Z,20.37
2023-01-30T09:14:05.346Z,19.73
2023-01-30T09:16:34.538Z,19.46
2023-01-30T09:19:04.228Z,19.04
2023-01-30T09:21:33.845Z,18.82
2023-01-30T09:24:03.564Z,18.53
2023-01-30T09:26:33.079Z,18.46
2023-01-30T09:29:02.362Z,18.21
2023-01-30T09:31:32.175Z,17.48
2023-01-30T09:34:01.514Z,17.12
2023-01-30T09:36:30.491Z,17.15
2023-01-30T09:38:59.684Z,16.95
2023-01-30T09:41:59.272Z,16.88
2023-01-30T09:45:05.420Z,16.88
2023-01-30T09:48:10.620Z,16.64
2023-01-30T09:50:49.005Z,16.63
2023-01-30T09:53:37.873Z,16.09
2023-01-30T09:56:08.021Z,16.16
2023-01-30T09:59:18.338Z,15.84
2023-01-30T10:02:00.308Z,16.15
2023-01-30T10:04:36.178Z,16.08
2023-01-30T10:07:32.680Z,15.96
2023-01-30T10:10:21.880Z,15.85
2023-01-30T10:13:22.849Z,16.00
2023-01-30T10:16:24.141Z,16.23
2023-01-30T10:19:50.553Z,15.89
2023-01-30T10:22:31.767Z,16.01
2023-01-30T10:25:29.059Z,15.44
2023-01-30T10:28:03.010Z,15.16
2023-01-30T10:30:35.639Z,14.74
2023-01-30T10:33:07.977Z,14.56
2023-01-30T10:35:43.179Z,14.01
2023-01-30T10:38:26.864Z,14.05
2023-01-30T10:41:22.390Z,14.05
2023-01-30T10:44:14.234Z,14.11
2023-01-30T10:47:04.807Z,14.04
2023-01-30T10:49:47.964Z,14.06
2023-01-30T10:52:42.414Z,13.92
2023-01-30T10:55:31.497Z,13.88
2023-01-30T10:58:18.223Z,13.84
2023-01-30T11:01:21.122Z,13.83
2023-01-30T11:04:03.929Z,14.04
2023-01-30T11:06:36.200Z,13.76
2023-01-30T11:09:05.799Z,13.47
2023-01-30T11:11:49.504Z,13.07
2023-01-30T11:14:18.830Z,13.78
2023-01-30T11:16:52.126Z,14.66
2023-01-30T11:19:34.413Z,14.84
2023-01-30T11:22:07.736Z,14.03
2023-01-30T11:24:43.484Z,13.86
2023-01-30T11:27:32.266Z,14.31
2023-01-30T11:30:20.567Z,14.93
2023-01-30T11:32:51.276Z,15.60
2023-01-30T11:35:25.642Z,15.86
2023-01-30T11:37:55.424Z,15.64
2023-01-30T11:40:28.373Z,16.53
2023-01-30T11:43:06.373Z,16.16
2023-01-30T11:45:38.884Z,16.24
2023-01-30T11:48:33.797Z,15.89
2023-01-30T11:51:14.963Z,15.35
2023-01-30T11:53:50.475Z,15.04
2023-01-30T11:56:33.375Z,14.96
2023-01-30T11:59:08.518Z,14.63
2023-01-30T12:01:38.152Z,14.62
2023-01-30T12:04:12.850Z,14.73
2023-01-30T12:06:44.377Z,14.74
2023-01-30T12:09:37.361Z,14.46
2023-01-30T12:12:32.457Z,14.79
2023-01-30T12:15:12.461Z,14.97
2023-01-30T12:18:00.451Z,14.87
2023-01-30T12:20:49.112Z,15.32
2023-01-30T12:23:21.801Z,15.63
2023-01-30T12:26:12.083Z,16.21
2023-01-30T12:29:00.234Z,16.77
2023-01-30T12:31:55.976Z,17.06
2023-01-30T12:34:27.581Z,17.11
2023-01-30T12:37:24.668Z,17.03
2023-01-30T12:40:17.055Z,17.50
2023-01-30T12:43:14.479Z,18.36
2023-01-30T12:46:07.960Z,19.23
2023-01-30T12:49:07.702Z,20.60
2023-01-30T12:52:17.347Z,21.55
2023-01-30T12:54:55.673Z,21.68
2023-01-30T12:57:34.767Z,21.67
2023-01-30T13:00:34.660Z,20.85
2023-01-30T13:03:26.667Z,20.67
2023-01-30T13:06:09.792Z,19.82
2023-01-30T13:08:52.954Z,19.98
2023-01-30T13:11:45.875Z,19.98
2023-01-30T13:14:29.270Z,19.64
2023-01-30T13:17:04.971Z,19.60
2023-01-30T13:19:46.960Z,19.29
2023-01-30T13:22:55.958Z,20.11
2023-01-30T13:25:30.897Z,21.33
2023-01-30T13:28:04.415Z,21.97
2023-01-30T13:30:37.361Z,22.35
2023-01-30T13:33:21.536Z,21.74
2023-01-30T13:36:16.759Z,21.51
2023-01-30T13:38:57.941Z,21.60
2023-01-30T13:41:32.730Z,21.42
2023-01-30T13:44:08.010Z,20.70
2023-01-30T13:46:39.945Z,20.54
2023-01-30T13:49:29.501Z,19.86
2023-01-30T13:52:10.092Z,20.46
2023-01-30T13:55:20.723Z,20.25
2023-01-30T13:58:19.773Z,20.36
2023-01-30T14:00:57.798Z,21.37
2023-01-30T14:03:33.174Z,21.69
2023-01-30T14:06:07.693Z,22.05
2023-01-30T14:08:46.842Z,22.98
2023-01-30T14:11:35.931Z,24.14
2023-01-30T14:14:31.185Z,25.26
2023-01-30T14:17:17.777Z,26.27
2023-01-30T14:20:00.159Z,27.11
2023-01-30T14:22:47.723Z,28.57
2023-01-30T14:25:26.235Z,29.56
2023-01-30T14:27:56.588Z,30.28
2023-01-30T14:30:31.429Z,30.59
2023-01-30T14:33:02.476Z,31.72
2023-01-30T14:35:33.603Z,32.56
2023-01-30T14:38:16.125Z,32.83
2023-01-30T14:40:50.349Z,33.86
2023-01-30T14:43:42.709Z,34.36
2023-01-30T14:46:19.646Z,34.41
2023-01-30T14:49:01.641Z,34.71
2023-01-30T14:51:40.156Z,34.96
2023-01-30T14:54:14.278Z,35.75
2023-01-30T14:57:03.570Z,36.27
2023-01-30T14:59:35.927Z,36.92
2023-01-30T15:02:14.921Z,36.87
2023-01-30T15:05:06.100Z,36.97
2023-01-30T15:08:00.452Z,37.11
2023-01-30T15:10:42.273Z,36.77
2023-01-30T15:13:16.840Z,36.68
2023-01-30T15:15:52.405Z,36.56
2023-01-30T15:18:46.085Z,36.24
2023-01-30T15:21:32.383Z,35.24
2023-01-30T15:24:42.329Z,34.48
2023-01-30T15:27:12.185Z,33.85
2023-01-30T15:29:56.679Z,33.21
2023-01-30T15:32:27.928Z,32.60
2023-01-30T15:35:17.058Z,32.09
2023-01-30T15:37:46.879Z,32.03
2023-01-30T15:40:16.656Z,31.66
2023-01-30T15:42:51.534Z,31.54
2023-01-30T15:45:52.687Z,31.53
2023-01-30T15:48:39.966Z,31.93
2023-01-30T15:51:15.045Z,31.91
2023-01-30T15:53:47.351Z,32.37
2023-01-30T15:56:24.561Z,32.98
2023-01-30T15:58:54.874Z,33.68
2023-01-30T16:01:24.569Z,34.17
2023-01-30T16:03:56.504Z,34.93
2023-01-30T16:06:34.706Z,35.88
2023-01-30T16:09:04.358Z,36.66
2023-01-30T16:11:41.983Z,37.61
2023-01-30T16:14:17.620Z,38.41
2023-01-30T16:16:53.113Z,39.11
2023-01-30T16:19:27.103Z,39.76
2023-01-30T16:22:02.879Z,40.27
2023-01-30T16:24:34.690Z,41.28
2023-01-30T16:27:07.980Z,41.84
2023-01-30T16:29:51.938Z,42.72
2023-01-30T16:32:33.807Z,43.51
2023-01-30T16:35:34.484Z,44.06
2023-01-30T16:38:04.705Z,44.46
2023-01-30T16:40:46.637Z,45.02
2023-01-30T16:43:25.658Z,45.42
2023-01-30T16:45:55.298Z,45.75
2023-01-30T16:48:34.308Z,46.50
2023-01-30T16:51:04.002Z,46.94
2023-01-30T16:53:34.334Z,47.53
2023-01-30T16:56:04.664Z,48.05
2023-01-30T16:58:36.405Z,48.02
2023-01-30T17:01:08.847Z,48.21
2023-01-30T17:04:01.264Z,48.83
2023-01-30T17:06:40.315Z,48.75
2023-01-30T17:09:46.696Z,49.26
2023-01-30T17:12:28.933Z,49.49
2023-01-30T17:15:29.059Z,50.04
2023-01-30T17:17:58.458Z,49.95
2023-01-30T17:20:41.100Z,50.32
2023-01-30T17:23:16.029Z,50.15
2023-01-30T17:25:47.992Z,50.64
2023-01-30T17:28:21.747Z,51.26
2023-01-30T17:30:51.435Z,51.44
2023-01-30T17:33:21.280Z,51.73
2023-01-30T17:35:50.627Z,51.76
2023-01-30T17:38:19.972Z,51.61
2023-01-30T17:40:50.627Z,51.70
2023-01-30T17:43:20.306Z,51.88
2023-01-30T17:45:51.197Z,51.90
2023-01-30T17:48:20.659Z,51.88
2023-01-30T17:50:49.642Z,51.99
2023-01-30T17:53:18.780Z,52.12
2023-01-30T17:55:48.767Z,52.17
2023-01-30T17:58:18.538Z,52.16
2023-01-30T18:00:48.111Z,52.47
2023-01-30T18:03:17.949Z,52.64
2023-01-30T18:05:47.849Z,52.65
2023-01-30T18:08:16.871Z,52.90
2023-01-30T18:10:46.423Z,52.86
2023-01-30T18:13:15.482Z,53.39
2023-01-30T18:15:44.641Z,53.34
2023-01-30T18:18:20.857Z,53.67
2023-01-30T18:20:49.766Z,53.51
2023-01-30T18:23:20.445Z,53.36
2023-01-30T18:25:50.920Z,53.49
2023-01-30T18:28:21.024Z,53.49
2023-01-30T18:30:50.711Z,54.23
2023-01-30T18:33:20.208Z,54.18
2023-01-30T18:35:49.819Z,54.12
2023-01-30T18:38:19.783Z,54.14
2023-01-30T18:40:50.038Z,54.65
2023-01-30T18:43:18.880Z,54.79
2023-01-30T18:45:48.791Z,54.47
2023-01-30T18:48:18.011Z,54.27
2023-01-30T18:50:47.350Z,54.33
2023-01-30T18:53:17.499Z,54.43
2023-01-30T18:55:51.181Z,54.38
2023-01-30T18:58:20.429Z,54.86
2023-01-30T19:00:49.871Z,54.71
2023-01-30T19:03:18.968Z,55.06
2023-01-30T19:05:47.886Z,55.56
2023-01-30T19:08:17.292Z,55.64
2023-01-30T19:10:46.117Z,55.67
2023-01-30T19:13:33.896Z,55.72
2023-01-30T19:16:04.636Z,55.72
2023-01-30T19:18:33.590Z,55.79
2023-01-30T19:21:03.951Z,56.08
2023-01-30T19:23:34.432Z,56.26
2023-01-30T19:26:04.144Z,56.59
2023-01-30T19:28:33.579Z,56.65
2023-01-30T19:31:07.988Z,56.79
2023-01-30T19:33:37.597Z,56.60
2023-01-30T19:36:20.318Z,56.48
2023-01-30T19:38:50.928Z,56.74
2023-01-30T19:41:31.672Z,56.77
2023-01-30T19:44:03.604Z,56.66
2023-01-30T19:46:34.241Z,56.42
2023-01-30T19:49:05.989Z,56.50
2023-01-30T19:51:36.070Z,56.76
2023-01-30T19:54:08.947Z,57.05
2023-01-30T19:56:40.501Z,57.47
2023-01-30T19:59:12.114Z,57.86
2023-01-30T20:01:41.412Z,57.65
2023-01-30T20:04:10.226Z,57.90
2023-01-30T20:06:45.065Z,57.95
2023-01-30T20:09:16.866Z,58.06
2023-01-30T20:11:46.186Z,58.34
2023-01-30T20:14:15.441Z,58.35
2023-01-30T20:16:45.726Z,58.69
2023-01-30T20:19:17.212Z,58.70
2023-01-30T20:21:46.757Z,58.58
2023-01-30T20:24:17.140Z,58.93
2023-01-30T20:26:48.556Z,59.09
2023-01-30T20:29:18.925Z,59.14
2023-01-30T20:31:48.734Z,59.13
2023-01-30T20:34:19.208Z,59.43
2023-01-30T20:36:48.898Z,59.48
2023-01-30T20:39:21.039Z,60.05
2023-01-30T20:41:50.721Z,59.90
2023-01-30T20:44:21.711Z,59.76
2023-01-30T20:46:51.516Z,59.73
2023-01-30T20:49:22.127Z,59.91
2023-01-30T20:51:53.603Z,59.77
2023-01-30T20:54:24.162Z,59.74
2023-01-30T20:56:54.798Z,59.88
2023-01-30T20:59:25.225Z,59.80
2023-01-30T21:01:56.024Z,59.93
2023-01-30T21:04:26.085Z,60.45
2023-01-30T21:06:55.263Z,60.32
2023-01-30T21:09:25.676Z,60.01
2023-01-30T21:11:56.108Z,60.17
2023-01-30T21:14:26.700Z,60.34
2023-01-30T21:16:56.548Z,60.55
2023-01-30T21:19:25.558Z,60.39
2023-01-30T21:21:56.648Z,60.38
2023-01-30T21:24:30.127Z,60.55
2023-01-30T21:27:00.454Z,60.88
2023-01-30T21:29:30.249Z,61.16
2023-01-30T21:32:00.120Z,60.57
2023-01-30T21:34:29.596Z,60.46
2023-01-30T21:37:17.980Z,60.24
2023-01-30T21:40:06.069Z,60.39
2023-01-30T21:42:53.998Z,60.85
2023-01-30T21:45:23.341Z,60.86
2023-01-30T21:47:54.774Z,60.59
2023-01-30T21:50:24.289Z,60.67
2023-01-30T21:52:53.464Z,60.61
2023-01-30T21:55:22.288Z,60.42
2023-01-30T21:57:53.036Z,60.73
2023-01-30T22:00:22.776Z,60.63
2023-01-30T22:02:52.094Z,60.53
2023-01-30T22:05:21.199Z,59.93
2023-01-30T22:07:50.231Z,59.88
2023-01-30T22:10:19.423Z,60.25
2023-01-30T22:12:48.581Z,60.17
2023-01-30T22:15:18.097Z,60.17
2023-01-30T22:17:48.367Z,60.47
2023-01-30T22:20:18.090Z,60.59
2023-01-30T22:22:48.022Z,60.75
2023-01-30T22:25:16.906Z,60.79
2023-01-30T22:27:46.051Z,61.03
2023-01-30T22:30:15.327Z,60.50
2023-01-30T22:32:45.354Z,60.43
2023-01-30T22:35:14.683Z,60.55
2023-01-30T22:37:44.374Z,60.45
2023-01-30T22:40:14.046Z,60.27
2023-01-30T22:42:48.050Z,59.97
2023-01-30T22:45:17.232Z,60.42
2023-01-30T22:47:46.278Z,60.84
2023-01-30T22:50:15.256Z,60.88
2023-01-30T22:52:44.334Z,60.75
2023-01-30T22:55:13.505Z,60.62
2023-01-30T22:57:42.616Z,60.66
2023-01-30T23:00:12.020Z,60.35
2023-01-30T23:02:41.117Z,60.40
2023-01-30T23:05:10.314Z,60.36
2023-01-30T23:07:39.262Z,60.00
2023-01-30T23:10:08.714Z,60.35
2023-01-30T23:12:56.240Z,60.71
2023-01-30T23:15:24.999Z,61.05
2023-01-30T23:18:12.424Z,61.12
2023-01-30T23:20:41.168Z,61.30
2023-01-30T23:23:09.826Z,61.49
2023-01-30T23:25:42.889Z,61.43
2023-01-30T23:28:11.611Z,61.81
2023-01-30T23:30:40.622Z,61.78
2023-01-30T23:33:09.607Z,61.25
2023-01-30T23:35:38.936Z,61.24
2023-01-30T23:38:19.660Z,61.34
2023-01-30T23:40:49.909Z,61.47
2023-01-30T23:43:20.197Z,61.84
2023-01-30T23:45:49.307Z,61.51
2023-01-30T23:48:20.179Z,61.28
2023-01-30T23:50:50.083Z,60.94
2023-01-30T23:53:19.426Z,61.20
2023-01-30T23:55:52.679Z,61.27
2023-01-30T23:58:22.346Z,61.39
